Etusivu
METAR-TAF:

METAR-TAF

Lentoasemat :

Molde, Norja

Molden lentoasema

Leveyspiiri: 62-45N, Pituuspiiri: 007-16E, korkeus merenpinnasta: 0 m

Tämänhetkinen sää

Tämä raportti tehtiin 28 minuuttia sitten, kello 15.20 UTC
Tuuli 5 kn koillisesta
Lämpötila 15°C
Kosteus 63%
Ilmanpaine 1016 hPa
Näkyvyys 10 km tai enemmän
Muutamia pilviä 5000 ft:n korkeudessa
Hajonneita pilviä 6000 ft:n korkeudessa

METAR: ENML 211520Z 05005KT 9999 FEW050 BKN060 15/08 Q1016

Aika: 17:48 (15:48 UTC)

Sääennuste

Tämä raportti tehtiin 1 tunti ja 48 minuuttia sitten, kello 14.00 UTC
Ennuste voimassa 21. päivästä klo 15 UTC - 21. päivään klo 22 UTC
Tuuli 8 kn idästä
Näkyvyys 10 km tai enemmän
Muutamia pilviä 4000 ft:n korkeudessa
Hajonneita pilviä 6000 ft:n korkeudessa

TAF: ENML 211400Z 2115/2122 08008KT 9999 FEW040 BKN060

Säähavainnot ja -ennusteet yli 4000 lentoasemalta (METAR- ja TAF-raportit).

Käytössä olevat sääasemat on merkitty karttaan keltaisilla ja punaisilla pisteillä.

Aseta hiiri pisteen päälle nähdäksesi sääaseman nimen.

Klikkaa sitten nähdäksesi säähavainnot ja -ennusteet.

Kartan vaihtaminen: klikkaa mustalla rastilla varustettuja vihreitä pisteitä, niin voit zoomata sisään; viivalla varustettua vihreää pistettä, niin voit zoomata ulos tai vihreitä nuolia, niin pääset viereisille kartoille.


METAR-TAF: